sensor_id;sensor_type;location;lat;lon;timestamp;pressure;altitude;pressure_sealevel;temperature
50206;BMP280;36098;48.390;10.856;2022-08-03T00:01:19;96200.72;;;27.43
50206;BMP280;36098;48.390;10.856;2022-08-03T00:03:44;96195.53;;;27.38
50206;BMP280;36098;48.390;10.856;2022-08-03T00:06:10;96201.50;;;27.44
50206;BMP280;36098;48.390;10.856;2022-08-03T00:08:35;96198.66;;;27.40
50206;BMP280;36098;48.390;10.856;2022-08-03T00:11:00;96198.16;;;27.38
50206;BMP280;36098;48.390;10.856;2022-08-03T00:13:26;96197.69;;;27.36
50206;BMP280;36098;48.390;10.856;2022-08-03T00:15:51;96195.78;;;27.37
50206;BMP280;36098;48.390;10.856;2022-08-03T00:18:17;96194.72;;;27.38
50206;BMP280;36098;48.390;10.856;2022-08-03T00:20:42;96192.66;;;27.35
50206;BMP280;36098;48.390;10.856;2022-08-03T00:23:08;96193.47;;;27.35
50206;BMP280;36098;48.390;10.856;2022-08-03T00:25:34;96198.66;;;27.40
50206;BMP280;36098;48.390;10.856;2022-08-03T00:28:00;96201.03;;;27.42
50206;BMP280;36098;48.390;10.856;2022-08-03T00:30:26;96202.38;;;27.39
50206;BMP280;36098;48.390;10.856;2022-08-03T00:32:51;96189.72;;;27.36
50206;BMP280;36098;48.390;10.856;2022-08-03T00:35:16;96188.75;;;27.32
50206;BMP280;36098;48.390;10.856;2022-08-03T00:37:42;96188.25;;;27.30
50206;BMP280;36098;48.390;10.856;2022-08-03T00:40:13;96182.75;;;27.27
50206;BMP280;36098;48.390;10.856;2022-08-03T00:45:16;96186.28;;;27.36
50206;BMP280;36098;48.390;10.856;2022-08-03T00:47:41;96184.69;;;27.35
50206;BMP280;36098;48.390;10.856;2022-08-03T00:50:07;96176.56;;;27.31
50206;BMP280;36098;48.390;10.856;2022-08-03T00:52:33;96187.16;;;27.31
50206;BMP280;36098;48.390;10.856;2022-08-03T00:54:59;96190.31;;;27.33
50206;BMP280;36098;48.390;10.856;2022-08-03T00:57:25;96195.63;;;27.33
50206;BMP280;36098;48.390;10.856;2022-08-03T00:59:51;96186.59;;;27.34
50206;BMP280;36098;48.390;10.856;2022-08-03T01:02:16;96187.44;;;27.30
50206;BMP280;36098;48.390;10.856;2022-08-03T01:04:41;96188.31;;;27.25
50206;BMP280;36098;48.390;10.856;2022-08-03T01:10:03;96188.31;;;27.25
50206;BMP280;36098;48.390;10.856;2022-08-03T01:12:35;96187.72;;;27.28
50206;BMP280;36098;48.390;10.856;2022-08-03T01:15:18;96183.81;;;27.26
50206;BMP280;36098;48.390;10.856;2022-08-03T01:18:02;96188.31;;;27.25
50206;BMP280;36098;48.390;10.856;2022-08-03T01:20:32;96177.72;;;27.25
50206;BMP280;36098;48.390;10.856;2022-08-03T01:23:31;96182.53;;;27.23
50206;BMP280;36098;48.390;10.856;2022-08-03T01:29:14;96175.38;;;27.24
50206;BMP280;36098;48.390;10.856;2022-08-03T01:31:54;96174.88;;;27.22
50206;BMP280;36098;48.390;10.856;2022-08-03T01:34:24;96172.41;;;27.25
50206;BMP280;36098;48.390;10.856;2022-08-03T01:36:52;96179.38;;;27.21
50206;BMP280;36098;48.390;10.856;2022-08-03T01:39:18;96180.69;;;27.24
50206;BMP280;36098;48.390;10.856;2022-08-03T01:41:50;96176.16;;;27.24
50206;BMP280;36098;48.390;10.856;2022-08-03T01:44:17;96174.56;;;27.23
50206;BMP280;36098;48.390;10.856;2022-08-03T01:46:45;96175.16;;;27.20
50206;BMP280;36098;48.390;10.856;2022-08-03T01:49:13;96172.72;;;27.24
50206;BMP280;36098;48.390;10.856;2022-08-03T01:51:41;96173.31;;;27.21
50206;BMP280;36098;48.390;10.856;2022-08-03T01:54:09;96181.06;;;27.17
50206;BMP280;36098;48.390;10.856;2022-08-03T01:56:36;96170.47;;;27.17
50206;BMP280;36098;48.390;10.856;2022-08-03T01:59:03;96177.13;;;27.15
50206;BMP280;36098;48.390;10.856;2022-08-03T02:01:30;96167.72;;;27.22
50206;BMP280;36098;48.390;10.856;2022-08-03T02:03:57;96178.09;;;27.19
50206;BMP280;36098;48.390;10.856;2022-08-03T02:06:24;96177.81;;;27.20
50206;BMP280;36098;48.390;10.856;2022-08-03T02:08:51;96173.38;;;27.16
50206;BMP280;36098;48.390;10.856;2022-08-03T02:11:17;96175.75;;;27.17
50206;BMP280;36098;48.390;10.856;2022-08-03T02:13:44;96174.69;;;27.18
50206;BMP280;36098;48.390;10.856;2022-08-03T02:16:11;96174.41;;;27.20
50206;BMP280;36098;48.390;10.856;2022-08-03T02:18:39;96175.75;;;27.17
50206;BMP280;36098;48.390;10.856;2022-08-03T02:21:06;96172.03;;;27.18
50206;BMP280;36098;48.390;10.856;2022-08-03T02:23:34;96171.53;;;27.16
50206;BMP280;36098;48.390;10.856;2022-08-03T02:26:02;96171.53;;;27.16
50206;BMP280;36098;48.390;10.856;2022-08-03T02:28:33;96170.25;;;27.14
50206;BMP280;36098;48.390;10.856;2022-08-03T02:31:02;96173.22;;;27.13
50206;BMP280;36098;48.390;10.856;2022-08-03T02:33:37;96169.75;;;27.12
50206;BMP280;36098;48.390;10.856;2022-08-03T02:36:04;96173.22;;;27.13
50206;BMP280;36098;48.390;10.856;2022-08-03T02:38:32;96165.25;;;27.13
50206;BMP280;36098;48.390;10.856;2022-08-03T02:40:59;96169.00;;;27.12
50206;BMP280;36098;48.390;10.856;2022-08-03T02:43:26;96172.13;;;27.13
50206;BMP280;36098;48.390;10.856;2022-08-03T02:45:53;96173.38;;;27.16
50206;BMP280;36098;48.390;10.856;2022-08-03T02:48:21;96167.59;;;27.14
50206;BMP280;36098;48.390;10.856;2022-08-03T02:50:49;96171.31;;;27.13
50206;BMP280;36098;48.390;10.856;2022-08-03T02:53:16;96166.34;;;27.12
50206;BMP280;36098;48.390;10.856;2022-08-03T02:55:42;96160.78;;;27.08
50206;BMP280;36098;48.390;10.856;2022-08-03T02:58:10;96160.22;;;27.11
50206;BMP280;36098;48.390;10.856;2022-08-03T03:00:37;96153.59;;;27.08
50206;BMP280;36098;48.390;10.856;2022-08-03T03:03:03;96158.88;;;27.13
50206;BMP280;36098;48.390;10.856;2022-08-03T03:05:30;96157.78;;;27.14
50206;BMP280;36098;48.390;10.856;2022-08-03T03:07:56;96161.53;;;27.13
50206;BMP280;36098;48.390;10.856;2022-08-03T03:10:23;96156.56;;;27.07
50206;BMP280;36098;48.390;10.856;2022-08-03T03:12:52;96160.00;;;27.07
50206;BMP280;36098;48.390;10.856;2022-08-03T03:15:19;96166.34;;;27.12
50206;BMP280;36098;48.390;10.856;2022-08-03T03:17:46;96158.38;;;27.12
50206;BMP280;36098;48.390;10.856;2022-08-03T03:20:13;96160.59;;;27.04
50206;BMP280;36098;48.390;10.856;2022-08-03T03:22:40;96151.38;;;27.02
50206;BMP280;36098;48.390;10.856;2022-08-03T03:25:06;96156.84;;;27.05
50206;BMP280;36098;48.390;10.856;2022-08-03T03:27:32;96159.59;;;27.01
50206;BMP280;36098;48.390;10.856;2022-08-03T03:29:58;96154.50;;;27.04
50206;BMP280;36098;48.390;10.856;2022-08-03T03:32:26;96150.47;;;27.06
50206;BMP280;36098;48.390;10.856;2022-08-03T03:34:52;96151.84;;;27.04
50206;BMP280;36098;48.390;10.856;2022-08-03T03:37:18;96149.22;;;27.04
50206;BMP280;36098;48.390;10.856;2022-08-03T03:39:43;96152.72;;;27.00
50206;BMP280;36098;48.390;10.856;2022-08-03T03:42:09;96156.09;;;27.05
50206;BMP280;36098;48.390;10.856;2022-08-03T03:44:35;96153.09;;;27.12
50206;BMP280;36098;48.390;10.856;2022-08-03T03:47:00;96145.00;;;27.03
50206;BMP280;36098;48.390;10.856;2022-08-03T03:49:26;96153.50;;;27.00
50206;BMP280;36098;48.390;10.856;2022-08-03T03:51:54;96156.94;;;27.01
50206;BMP280;36098;48.390;10.856;2022-08-03T03:54:20;96152.13;;;27.02
50206;BMP280;36098;48.390;10.856;2022-08-03T03:56:45;96158.44;;;27.06
50206;BMP280;36098;48.390;10.856;2022-08-03T03:59:11;96159.50;;;27.05
50206;BMP280;36098;48.390;10.856;2022-08-03T04:01:37;96156.66;;;27.02
50206;BMP280;36098;48.390;10.856;2022-08-03T04:04:03;96156.34;;;27.03
50206;BMP280;36098;48.390;10.856;2022-08-03T04:06:49;96162.75;;;27.02
50206;BMP280;36098;48.390;10.856;2022-08-03T04:09:35;96167.44;;;27.05
50206;BMP280;36098;48.390;10.856;2022-08-03T04:12:22;96160.59;;;27.04
50206;BMP280;36098;48.390;10.856;2022-08-03T04:14:49;96167.09;;;27.12
50206;BMP280;36098;48.390;10.856;2022-08-03T04:17:15;96155.28;;;27.04
50206;BMP280;36098;48.390;10.856;2022-08-03T04:19:43;96154.31;;;27.01
50206;BMP280;36098;48.390;10.856;2022-08-03T04:22:11;96166.09;;;27.08
50206;BMP280;36098;48.390;10.856;2022-08-03T04:24:44;96167.94;;;27.07
50206;BMP280;36098;48.390;10.856;2022-08-03T04:27:11;96163.72;;;27.06
50206;BMP280;36098;48.390;10.856;2022-08-03T04:29:41;96170.19;;;27.01
50206;BMP280;36098;48.390;10.856;2022-08-03T04:32:07;96173.06;;;27.04
50206;BMP280;36098;48.390;10.856;2022-08-03T04:34:34;96176.19;;;27.06
50206;BMP280;36098;48.390;10.856;2022-08-03T04:37:02;96174.31;;;27.06
50206;BMP280;36098;48.390;10.856;2022-08-03T04:39:31;96172.47;;;27.07
50206;BMP280;36098;48.390;10.856;2022-08-03T04:42:05;96176.47;;;27.04
50206;BMP280;36098;48.390;10.856;2022-08-03T04:44:35;96182.75;;;27.08
50206;BMP280;36098;48.390;10.856;2022-08-03T04:47:01;96177.28;;;27.05
50206;BMP280;36098;48.390;10.856;2022-08-03T04:49:28;96190.72;;;27.08
50206;BMP280;36098;48.390;10.856;2022-08-03T04:51:54;96188.16;;;27.03
50206;BMP280;36098;48.390;10.856;2022-08-03T04:54:19;96191.94;;;27.16
50206;BMP280;36098;48.390;10.856;2022-08-03T04:56:45;96194.91;;;27.28
50206;BMP280;36098;48.390;10.856;2022-08-03T04:59:10;96203.69;;;27.42
50206;BMP280;36098;48.390;10.856;2022-08-03T05:01:36;96200.59;;;27.35
50206;BMP280;36098;48.390;10.856;2022-08-03T05:04:02;96204.25;;;27.39
50206;BMP280;36098;48.390;10.856;2022-08-03T05:06:28;96203.47;;;27.38
50206;BMP280;36098;48.390;10.856;2022-08-03T05:08:53;96194.72;;;27.24
50206;BMP280;36098;48.390;10.856;2022-08-03T05:11:19;96203.38;;;27.30
50206;BMP280;36098;48.390;10.856;2022-08-03T05:13:45;96193.63;;;27.25
50206;BMP280;36098;48.390;10.856;2022-08-03T05:16:11;96201.69;;;27.20
50206;BMP280;36098;48.390;10.856;2022-08-03T05:18:38;96204.03;;;27.22
50206;BMP280;36098;48.390;10.856;2022-08-03T05:21:03;96201.19;;;27.18
50206;BMP280;36098;48.390;10.856;2022-08-03T05:23:29;96199.03;;;27.20
50206;BMP280;36098;48.390;10.856;2022-08-03T05:25:54;96200.09;;;27.19
50206;BMP280;36098;48.390;10.856;2022-08-03T05:28:20;96200.69;;;27.16
50206;BMP280;36098;48.390;10.856;2022-08-03T05:30:45;96204.38;;;27.02
50206;BMP280;36098;48.390;10.856;2022-08-03T05:33:10;96194.97;;;27.09
50206;BMP280;36098;48.390;10.856;2022-08-03T05:35:36;96189.63;;;26.96
50206;BMP280;36098;48.390;10.856;2022-08-03T05:38:03;96197.19;;;27.02
50206;BMP280;36098;48.390;10.856;2022-08-03T05:40:29;96196.31;;;27.07
50206;BMP280;36098;48.390;10.856;2022-08-03T05:42:54;96200.69;;;27.16
50206;BMP280;36098;48.390;10.856;2022-08-03T05:45:19;96201.56;;;27.12
50206;BMP280;36098;48.390;10.856;2022-08-03T05:47:45;96197.19;;;27.34
50206;BMP280;36098;48.390;10.856;2022-08-03T05:50:11;96206.59;;;27.13
50206;BMP280;36098;48.390;10.856;2022-08-03T05:52:37;96207.78;;;27.21
50206;BMP280;36098;48.390;10.856;2022-08-03T05:55:07;96204.22;;;27.25
50206;BMP280;36098;48.390;10.856;2022-08-03T05:57:33;96204.03;;;27.22
50206;BMP280;36098;48.390;10.856;2022-08-03T05:59:59;96203.44;;;27.12
50206;BMP280;36098;48.390;10.856;2022-08-03T06:02:25;96206.94;;;27.07
50206;BMP280;36098;48.390;10.856;2022-08-03T06:04:50;96199.75;;;27.07
50206;BMP280;36098;48.390;10.856;2022-08-03T06:07:16;96199.84;;;27.02
50206;BMP280;36098;48.390;10.856;2022-08-03T06:09:41;96207.16;;;27.11
50206;BMP280;36098;48.390;10.856;2022-08-03T06:12:06;96196.31;;;27.07
50206;BMP280;36098;48.390;10.856;2022-08-03T06:14:32;96202.13;;;27.09
50206;BMP280;36098;48.390;10.856;2022-08-03T06:16:57;96205.78;;;27.13
50206;BMP280;36098;48.390;10.856;2022-08-03T06:19:22;96200.09;;;27.19
50206;BMP280;36098;48.390;10.856;2022-08-03T06:21:48;96197.34;;;27.24
50206;BMP280;36098;48.390;10.856;2022-08-03T06:24:13;96198.75;;;27.22
50206;BMP280;36098;48.390;10.856;2022-08-03T06:26:39;96202.84;;;27.14
50206;BMP280;36098;48.390;10.856;2022-08-03T06:29:04;96203.84;;;27.45
50206;BMP280;36098;48.390;10.856;2022-08-03T06:31:30;96209.16;;;27.45
50206;BMP280;36098;48.390;10.856;2022-08-03T06:33:55;96215.38;;;27.41
50206;BMP280;36098;48.390;10.856;2022-08-03T06:36:20;96206.63;;;27.40
50206;BMP280;36098;48.390;10.856;2022-08-03T06:38:46;96208.56;;;27.48
50206;BMP280;36098;48.390;10.856;2022-08-03T06:41:11;96215.66;;;27.39
50206;BMP280;36098;48.390;10.856;2022-08-03T06:43:36;96220.25;;;27.34
50206;BMP280;36098;48.390;10.856;2022-08-03T06:46:02;96214.94;;;27.20
50206;BMP280;36098;48.390;10.856;2022-08-03T06:48:29;96208.75;;;27.12
50206;BMP280;36098;48.390;10.856;2022-08-03T06:50:55;96215.44;;;26.91
50206;BMP280;36098;48.390;10.856;2022-08-03T06:53:20;96213.06;;;26.89
50206;BMP280;36098;48.390;10.856;2022-08-03T06:55:46;96217.88;;;26.87
50206;BMP280;36098;48.390;10.856;2022-08-03T06:58:11;96225.91;;;26.82
50206;BMP280;36098;48.390;10.856;2022-08-03T07:00:36;96224.03;;;26.83
50206;BMP280;36098;48.390;10.856;2022-08-03T07:03:02;96225.00;;;26.87
50206;BMP280;36098;48.390;10.856;2022-08-03T07:05:27;96229.22;;;26.88
50206;BMP280;36098;48.390;10.856;2022-08-03T07:07:56;96225.50;;;26.89
50206;BMP280;36098;48.390;10.856;2022-08-03T07:10:23;96221.59;;;26.68
50206;BMP280;36098;48.390;10.856;2022-08-03T07:12:48;96225.63;;;26.65
50206;BMP280;36098;48.390;10.856;2022-08-03T07:15:14;96219.53;;;26.65
50206;BMP280;36098;48.390;10.856;2022-08-03T07:17:39;96221.81;;;26.71
50206;BMP280;36098;48.390;10.856;2022-08-03T07:20:06;96216.78;;;26.88
50206;BMP280;36098;48.390;10.856;2022-08-03T07:22:31;96220.47;;;26.55
50206;BMP280;36098;48.390;10.856;2022-08-03T07:24:57;96218.19;;;26.49
50206;BMP280;36098;48.390;10.856;2022-08-03T07:27:23;96211.69;;;26.60
50206;BMP280;36098;48.390;10.856;2022-08-03T07:29:50;96219.53;;;26.65
50206;BMP280;36098;48.390;10.856;2022-08-03T07:32:16;96216.31;;;26.68
50206;BMP280;36098;48.390;10.856;2022-08-03T07:34:41;96217.25;;;26.77
50206;BMP280;36098;48.390;10.856;2022-08-03T07:37:06;96214.50;;;26.82
50206;BMP280;36098;48.390;10.856;2022-08-03T07:39:32;96213.16;;;26.66
50206;BMP280;36098;48.390;10.856;2022-08-03T07:41:57;96211.91;;;26.63
50206;BMP280;36098;48.390;10.856;2022-08-03T07:44:22;96212.53;;;26.74
50206;BMP280;36098;48.390;10.856;2022-08-03T07:46:48;96211.69;;;26.60
50206;BMP280;36098;48.390;10.856;2022-08-03T07:49:14;96212.53;;;26.74
50206;BMP280;36098;48.390;10.856;2022-08-03T07:51:40;96212.72;;;26.77
50206;BMP280;36098;48.390;10.856;2022-08-03T07:54:05;96208.38;;;26.68
50206;BMP280;36098;48.390;10.856;2022-08-03T07:56:31;96206.44;;;26.73
50206;BMP280;36098;48.390;10.856;2022-08-03T07:58:57;96204.13;;;26.67
50206;BMP280;36098;48.390;10.856;2022-08-03T08:01:23;96197.19;;;26.71
50206;BMP280;36098;48.390;10.856;2022-08-03T08:03:49;96204.41;;;26.52
50206;BMP280;36098;48.390;10.856;2022-08-03T08:06:15;96202.25;;;26.54
50206;BMP280;36098;48.390;10.856;2022-08-03T08:08:42;96203.16;;;26.63
50206;BMP280;36098;48.390;10.856;2022-08-03T08:11:07;96198.19;;;27.06
50206;BMP280;36098;48.390;10.856;2022-08-03T08:13:32;96191.69;;;27.31
50206;BMP280;36098;48.390;10.856;2022-08-03T08:15:58;96195.22;;;27.40
50206;BMP280;36098;48.390;10.856;2022-08-03T08:18:24;96193.63;;;27.39
50206;BMP280;36098;48.390;10.856;2022-08-03T08:20:50;96193.56;;;27.44
50206;BMP280;36098;48.390;10.856;2022-08-03T08:23:15;96201.13;;;27.50
50206;BMP280;36098;48.390;10.856;2022-08-03T08:25:47;96198.75;;;27.49
50206;BMP280;36098;48.390;10.856;2022-08-03T08:28:12;96197.56;;;27.55
50206;BMP280;36098;48.390;10.856;2022-08-03T08:30:37;96195.13;;;27.58
50206;BMP280;36098;48.390;10.856;2022-08-03T08:33:03;96196.81;;;27.54
50206;BMP280;36098;48.390;10.856;2022-08-03T08:35:28;96191.69;;;27.58
50206;BMP280;36098;48.390;10.856;2022-08-03T08:37:53;96197.19;;;27.61
50206;BMP280;36098;48.390;10.856;2022-08-03T08:40:20;96202.22;;;27.63
50206;BMP280;36098;48.390;10.856;2022-08-03T08:42:46;96200.94;;;27.60
50206;BMP280;36098;48.390;10.856;2022-08-03T08:45:12;96196.22;;;27.57
50206;BMP280;36098;48.390;10.856;2022-08-03T08:47:40;96188.16;;;27.62
50206;BMP280;36098;48.390;10.856;2022-08-03T08:50:08;96186.78;;;27.65
50206;BMP280;36098;48.390;10.856;2022-08-03T08:52:34;96194.44;;;27.66
50206;BMP280;36098;48.390;10.856;2022-08-03T08:55:05;96198.75;;;27.62
50206;BMP280;36098;48.390;10.856;2022-08-03T08:57:35;96183.81;;;27.66
50206;BMP280;36098;48.390;10.856;2022-08-03T09:00:04;96178.03;;;27.64
50206;BMP280;36098;48.390;10.856;2022-08-03T09:02:30;96186.47;;;27.66
50206;BMP280;36098;48.390;10.856;2022-08-03T09:04:56;96194.44;;;27.66
50206;BMP280;36098;48.390;10.856;2022-08-03T09:07:22;96185.38;;;27.67
50206;BMP280;36098;48.390;10.856;2022-08-03T09:09:48;96188.75;;;27.73
50206;BMP280;36098;48.390;10.856;2022-08-03T09:12:13;96186.91;;;27.73
50206;BMP280;36098;48.390;10.856;2022-08-03T09:14:38;96186.69;;;27.70
50206;BMP280;36098;48.390;10.856;2022-08-03T09:17:04;96186.44;;;27.71
50206;BMP280;36098;48.390;10.856;2022-08-03T09:19:31;96189.63;;;27.68
50206;BMP280;36098;48.390;10.856;2022-08-03T09:22:26;96197.78;;;27.58
50206;BMP280;36098;48.390;10.856;2022-08-03T09:25:00;96184.41;;;27.50
50206;BMP280;36098;48.390;10.856;2022-08-03T09:27:27;96186.47;;;27.53
50206;BMP280;36098;48.390;10.856;2022-08-03T09:29:53;96194.44;;;27.53
50206;BMP280;36098;48.390;10.856;2022-08-03T09:32:22;96191.28;;;27.51
50206;BMP280;36098;48.390;10.856;2022-08-03T09:34:49;96185.81;;;27.61
50206;BMP280;36098;48.390;10.856;2022-08-03T09:37:17;96182.16;;;27.70
50206;BMP280;36098;48.390;10.856;2022-08-03T09:39:43;96187.34;;;27.48
50206;BMP280;36098;48.390;10.856;2022-08-03T09:42:14;96189.72;;;27.36
50206;BMP280;36098;48.390;10.856;2022-08-03T09:44:46;96192.28;;;27.55
50206;BMP280;36098;48.390;10.856;2022-08-03T09:47:14;96192.00;;;27.56
50206;BMP280;36098;48.390;10.856;2022-08-03T09:49:41;96185.59;;;27.57
50206;BMP280;36098;48.390;10.856;2022-08-03T09:52:15;96183.94;;;27.61
50206;BMP280;36098;48.390;10.856;2022-08-03T09:54:43;96186.91;;;27.60
50206;BMP280;36098;48.390;10.856;2022-08-03T09:57:23;96186.78;;;27.51
50206;BMP280;36098;48.390;10.856;2022-08-03T09:59:50;96171.84;;;27.55
50206;BMP280;36098;48.390;10.856;2022-08-03T10:02:24;96182.25;;;27.52
50206;BMP280;36098;48.390;10.856;2022-08-03T10:04:50;96188.53;;;27.56
50206;BMP280;36098;48.390;10.856;2022-08-03T10:07:21;96179.09;;;27.63
50206;BMP280;36098;48.390;10.856;2022-08-03T10:10:00;96189.13;;;27.53
50206;BMP280;36098;48.390;10.856;2022-08-03T10:12:27;96170.47;;;27.58
50206;BMP280;36098;48.390;10.856;2022-08-03T10:14:53;96173.22;;;27.39
50206;BMP280;36098;48.390;10.856;2022-08-03T10:17:22;96176.75;;;27.48
50206;BMP280;36098;48.390;10.856;2022-08-03T10:19:48;96177.72;;;27.25
50206;BMP280;36098;48.390;10.856;2022-08-03T10:22:32;96184.19;;;27.19
50206;BMP280;36098;48.390;10.856;2022-08-03T10:25:11;96174.03;;;26.95
50206;BMP280;36098;48.390;10.856;2022-08-03T10:27:40;96177.53;;;27.22
50206;BMP280;36098;48.390;10.856;2022-08-03T10:30:08;96167.94;;;27.07
50206;BMP280;36098;48.390;10.856;2022-08-03T10:32:37;96168.41;;;26.96
50206;BMP280;36098;48.390;10.856;2022-08-03T10:35:07;96168.34;;;27.01
50206;BMP280;36098;48.390;10.856;2022-08-03T10:37:40;96169.63;;;27.03
50206;BMP280;36098;48.390;10.856;2022-08-03T10:40:14;96170.56;;;27.13
50206;BMP280;36098;48.390;10.856;2022-08-03T10:42:41;96163.44;;;27.08
50206;BMP280;36098;48.390;10.856;2022-08-03T10:45:15;96163.41;;;27.40
50206;BMP280;36098;48.390;10.856;2022-08-03T10:47:42;96145.63;;;27.40
50206;BMP280;36098;48.390;10.856;2022-08-03T10:50:08;96144.91;;;27.48
50206;BMP280;36098;48.390;10.856;2022-08-03T10:52:34;96147.69;;;27.43
50206;BMP280;36098;48.390;10.856;2022-08-03T10:54:59;96150.31;;;27.57
50206;BMP280;36098;48.390;10.856;2022-08-03T10:57:52;96146.00;;;27.20
50206;BMP280;36098;48.390;10.856;2022-08-03T11:00:27;96148.63;;;27.07
50206;BMP280;36098;48.390;10.856;2022-08-03T11:03:11;96150.47;;;27.06
50206;BMP280;36098;48.390;10.856;2022-08-03T11:05:40;96150.19;;;27.08
50206;BMP280;36098;48.390;10.856;2022-08-03T11:10:46;96150.81;;;27.18
50206;BMP280;36098;48.390;10.856;2022-08-03T11:13:20;96144.34;;;27.38
50206;BMP280;36098;48.390;10.856;2022-08-03T11:15:46;96140.31;;;27.40
50206;BMP280;36098;48.390;10.856;2022-08-03T11:18:12;96126.38;;;27.48
50206;BMP280;36098;48.390;10.856;2022-08-03T11:20:57;96135.41;;;27.61
50206;BMP280;36098;48.390;10.856;2022-08-03T11:23:44;96129.69;;;27.67
50206;BMP280;36098;48.390;10.856;2022-08-03T11:26:10;96131.97;;;27.60
50206;BMP280;36098;48.390;10.856;2022-08-03T11:28:35;96130.88;;;27.61
50206;BMP280;36098;48.390;10.856;2022-08-03T11:36:28;96121.56;;;27.64
50206;BMP280;36098;48.390;10.856;2022-08-03T11:39:13;96113.88;;;27.62
50206;BMP280;36098;48.390;10.856;2022-08-03T11:41:38;96107.38;;;27.68
50206;BMP280;36098;48.390;10.856;2022-08-03T11:44:03;96118.41;;;27.62
50206;BMP280;36098;48.390;10.856;2022-08-03T11:46:36;96119.19;;;27.62
50206;BMP280;36098;48.390;10.856;2022-08-03T11:49:05;96120.16;;;27.66
50206;BMP280;36098;48.390;10.856;2022-08-03T11:51:35;96119.59;;;27.69
50206;BMP280;36098;48.390;10.856;2022-08-03T11:54:04;96123.00;;;27.70
50206;BMP280;36098;48.390;10.856;2022-08-03T11:56:50;96110.03;;;27.68
50206;BMP280;36098;48.390;10.856;2022-08-03T11:59:15;96109.97;;;27.73
50206;BMP280;36098;48.390;10.856;2022-08-03T12:01:44;96110.06;;;27.82
50206;BMP280;36098;48.390;10.856;2022-08-03T12:04:10;96109.63;;;27.88
50206;BMP280;36098;48.390;10.856;2022-08-03T12:06:35;96104.31;;;27.88
50206;BMP280;36098;48.390;10.856;2022-08-03T12:09:19;96105.41;;;27.87
50206;BMP280;36098;48.390;10.856;2022-08-03T12:11:51;96101.41;;;28.12
50206;BMP280;36098;48.390;10.856;2022-08-03T12:14:18;96101.56;;;27.93
50206;BMP280;36098;48.390;10.856;2022-08-03T12:16:47;96097.41;;;27.79
50206;BMP280;36098;48.390;10.856;2022-08-03T12:19:13;96097.28;;;27.70
50206;BMP280;36098;48.390;10.856;2022-08-03T12:21:46;96091.41;;;27.73
50206;BMP280;36098;48.390;10.856;2022-08-03T12:24:12;96095.63;;;27.74
50206;BMP280;36098;48.390;10.856;2022-08-03T12:26:47;96093.47;;;27.76
50206;BMP280;36098;48.390;10.856;2022-08-03T12:29:20;96078.50;;;27.80
50206;BMP280;36098;48.390;10.856;2022-08-03T12:31:46;96086.91;;;27.96
50206;BMP280;36098;48.390;10.856;2022-08-03T12:34:11;96093.81;;;28.32
50206;BMP280;36098;48.390;10.856;2022-08-03T12:36:37;96084.84;;;28.28
50206;BMP280;36098;48.390;10.856;2022-08-03T12:39:13;96079.84;;;28.49
50206;BMP280;36098;48.390;10.856;2022-08-03T12:41:39;96087.75;;;28.40
50206;BMP280;36098;48.390;10.856;2022-08-03T12:44:06;96085.84;;;28.32
50206;BMP280;36098;48.390;10.856;2022-08-03T12:46:35;96084.16;;;28.23
50206;BMP280;36098;48.390;10.856;2022-08-03T12:49:12;96087.41;;;28.33
50206;BMP280;36098;48.390;10.856;2022-08-03T12:54:09;96086.28;;;28.12
50206;BMP280;36098;48.390;10.856;2022-08-03T12:57:07;96077.47;;;28.47
50206;BMP280;36098;48.390;10.856;2022-08-03T12:59:41;96066.38;;;28.45
50206;BMP280;36098;48.390;10.856;2022-08-03T13:04:46;96070.72;;;28.19
50206;BMP280;36098;48.390;10.856;2022-08-03T13:07:13;96072.41;;;28.15
50206;BMP280;36098;48.390;10.856;2022-08-03T13:09:46;96071.97;;;28.00
50206;BMP280;36098;48.390;10.856;2022-08-03T13:12:13;96069.41;;;27.95
50206;BMP280;36098;48.390;10.856;2022-08-03T13:14:40;96066.94;;;27.76
50206;BMP280;36098;48.390;10.856;2022-08-03T13:17:06;96068.00;;;27.75
50206;BMP280;36098;48.390;10.856;2022-08-03T13:19:35;96073.97;;;27.67
50206;BMP280;36098;48.390;10.856;2022-08-03T13:22:19;96061.91;;;27.61
50206;BMP280;36098;48.390;10.856;2022-08-03T13:24:46;96069.94;;;27.83
50206;BMP280;36098;48.390;10.856;2022-08-03T13:27:12;96067.44;;;28.00
50206;BMP280;36098;48.390;10.856;2022-08-03T13:29:38;96059.34;;;28.05
50206;BMP280;36098;48.390;10.856;2022-08-03T13:32:05;96059.34;;;28.27
50206;BMP280;36098;48.390;10.856;2022-08-03T13:34:30;96052.47;;;28.40
50206;BMP280;36098;48.390;10.856;2022-08-03T13:36:56;96050.75;;;28.44
50206;BMP280;36098;48.390;10.856;2022-08-03T13:39:21;96047.44;;;28.38
50206;BMP280;36098;48.390;10.856;2022-08-03T13:41:47;96043.28;;;28.46
50206;BMP280;36098;48.390;10.856;2022-08-03T13:44:12;96043.94;;;28.51
50206;BMP280;36098;48.390;10.856;2022-08-03T13:46:38;96042.38;;;28.50
50206;BMP280;36098;48.390;10.856;2022-08-03T13:49:04;96046.75;;;28.55
50206;BMP280;36098;48.390;10.856;2022-08-03T13:51:29;96038.72;;;28.46
50206;BMP280;36098;48.390;10.856;2022-08-03T13:53:54;96039.00;;;28.36
50206;BMP280;36098;48.390;10.856;2022-08-03T13:56:21;96032.16;;;28.44
50206;BMP280;36098;48.390;10.856;2022-08-03T13:58:46;96031.41;;;28.52
50206;BMP280;36098;48.390;10.856;2022-08-03T14:01:11;96032.03;;;28.49
50206;BMP280;36098;48.390;10.856;2022-08-03T14:03:38;96028.09;;;28.46
50206;BMP280;36098;48.390;10.856;2022-08-03T14:06:03;96028.44;;;28.45
50206;BMP280;36098;48.390;10.856;2022-08-03T14:08:28;96027.06;;;28.56
50206;BMP280;36098;48.390;10.856;2022-08-03T14:10:53;96025.97;;;28.57
50206;BMP280;36098;48.390;10.856;2022-08-03T14:13:19;96028.28;;;28.50
50206;BMP280;36098;48.390;10.856;2022-08-03T14:15:47;96015.91;;;28.45
50206;BMP280;36098;48.390;10.856;2022-08-03T14:18:12;96019.00;;;28.17
50206;BMP280;36098;48.390;10.856;2022-08-03T14:20:38;96018.56;;;28.01
50206;BMP280;36098;48.390;10.856;2022-08-03T14:23:03;96021.47;;;28.13